sensor_id;sensor_type;location;lat;lon;timestamp;temperature;humidity
53520;DHT22;39397;53.204;5.778;2023-03-24T00:01:10;9.70;99.90
53520;DHT22;39397;53.204;5.778;2023-03-24T00:03:36;11.60;99.90
53520;DHT22;39397;53.204;5.778;2023-03-24T00:06:06;11.50;99.90
53520;DHT22;39397;53.204;5.778;2023-03-24T00:08:35;11.40;99.90
53520;DHT22;39397;53.204;5.778;2023-03-24T00:11:03;11.60;99.90
53520;DHT22;39397;53.204;5.778;2023-03-24T00:13:31;10.00;99.90
53520;DHT22;39397;53.204;5.778;2023-03-24T00:16:08;11.30;99.90
53520;DHT22;39397;53.204;5.778;2023-03-24T00:18:35;11.70;99.90
53520;DHT22;39397;53.204;5.778;2023-03-24T00:21:02;11.50;99.90
53520;DHT22;39397;53.204;5.778;2023-03-24T00:23:29;11.30;99.90
53520;DHT22;39397;53.204;5.778;2023-03-24T00:26:06;11.50;99.90
53520;DHT22;39397;53.204;5.778;2023-03-24T00:28:35;11.40;99.90
53520;DHT22;39397;53.204;5.778;2023-03-24T00:31:03;12.30;99.90
53520;DHT22;39397;53.204;5.778;2023-03-24T00:33:30;11.50;99.90
53520;DHT22;39397;53.204;5.778;2023-03-24T00:36:04;12.60;99.90
53520;DHT22;39397;53.204;5.778;2023-03-24T00:38:32;11.30;99.90
53520;DHT22;39397;53.204;5.778;2023-03-24T00:41:01;11.30;99.90
53520;DHT22;39397;53.204;5.778;2023-03-24T00:43:30;11.40;99.90
53520;DHT22;39397;53.204;5.778;2023-03-24T00:46:01;11.40;99.90
53520;DHT22;39397;53.204;5.778;2023-03-24T00:48:29;11.30;99.90
53520;DHT22;39397;53.204;5.778;2023-03-24T00:50:55;11.70;99.90
53520;DHT22;39397;53.204;5.778;2023-03-24T00:53:22;11.30;99.90
53520;DHT22;39397;53.204;5.778;2023-03-24T00:55:50;11.40;99.90
53520;DHT22;39397;53.204;5.778;2023-03-24T00:58:17;11.40;99.90
53520;DHT22;39397;53.204;5.778;2023-03-24T01:00:45;11.40;99.90
53520;DHT22;39397;53.204;5.778;2023-03-24T01:03:11;11.30;99.90
53520;DHT22;39397;53.204;5.778;2023-03-24T01:05:37;11.40;99.90
53520;DHT22;39397;53.204;5.778;2023-03-24T01:08:04;11.50;99.90
53520;DHT22;39397;53.204;5.778;2023-03-24T01:10:33;11.40;99.90
53520;DHT22;39397;53.204;5.778;2023-03-24T01:13:00;11.40;99.90
53520;DHT22;39397;53.204;5.778;2023-03-24T01:15:32;11.30;99.90
53520;DHT22;39397;53.204;5.778;2023-03-24T01:17:58;11.40;99.90
53520;DHT22;39397;53.204;5.778;2023-03-24T01:20:27;11.30;99.90
53520;DHT22;39397;53.204;5.778;2023-03-24T01:22:58;11.60;99.90
53520;DHT22;39397;53.204;5.778;2023-03-24T01:25:24;11.40;99.90
53520;DHT22;39397;53.204;5.778;2023-03-24T01:27:51;11.50;99.90
53520;DHT22;39397;53.204;5.778;2023-03-24T01:30:25;11.40;99.90
53520;DHT22;39397;53.204;5.778;2023-03-24T01:32:51;11.40;99.90
53520;DHT22;39397;53.204;5.778;2023-03-24T01:35:19;10.20;99.90
53520;DHT22;39397;53.204;5.778;2023-03-24T01:37:45;11.70;99.90
53520;DHT22;39397;53.204;5.778;2023-03-24T01:40:20;11.20;99.90
53520;DHT22;39397;53.204;5.778;2023-03-24T01:42:46;12.10;99.90
53520;DHT22;39397;53.204;5.778;2023-03-24T01:48:00;11.60;99.90
53520;DHT22;39397;53.204;5.778;2023-03-24T01:50:29;11.40;99.90
53520;DHT22;39397;53.204;5.778;2023-03-24T01:52:56;13.60;99.90
53520;DHT22;39397;53.204;5.778;2023-03-24T01:55:22;11.50;99.90
53520;DHT22;39397;53.204;5.778;2023-03-24T01:57:51;11.80;99.90
53520;DHT22;39397;53.204;5.778;2023-03-24T02:00:19;13.30;99.90
53520;DHT22;39397;53.204;5.778;2023-03-24T02:02:49;11.70;99.90
53520;DHT22;39397;53.204;5.778;2023-03-24T02:05:28;11.30;99.90
53520;DHT22;39397;53.204;5.778;2023-03-24T02:08:19;10.10;99.90
53520;DHT22;39397;53.204;5.778;2023-03-24T02:10:47;11.50;99.90
53520;DHT22;39397;53.204;5.778;2023-03-24T02:13:13;13.00;99.90
53520;DHT22;39397;53.204;5.778;2023-03-24T02:16:09;12.10;99.90
53520;DHT22;39397;53.204;5.778;2023-03-24T02:35:12;13.60;99.90
53520;DHT22;39397;53.204;5.778;2023-03-24T02:38:08;11.60;99.90
53520;DHT22;39397;53.204;5.778;2023-03-24T02:51:44;10.40;99.90
53520;DHT22;39397;53.204;5.778;2023-03-24T02:57:33;11.20;99.90
53520;DHT22;39397;53.204;5.778;2023-03-24T03:00:30;11.30;99.90
53520;DHT22;39397;53.204;5.778;2023-03-24T03:03:29;11.20;99.90
53520;DHT22;39397;53.204;5.778;2023-03-24T03:06:23;11.40;99.90
53520;DHT22;39397;53.204;5.778;2023-03-24T03:08:50;11.20;99.90
53520;DHT22;39397;53.204;5.778;2023-03-24T03:11:17;11.10;99.90
53520;DHT22;39397;53.204;5.778;2023-03-24T03:14:11;11.10;99.90
53520;DHT22;39397;53.204;5.778;2023-03-24T03:19:17;8.80;99.90
53520;DHT22;39397;53.204;5.778;2023-03-24T03:21:47;11.00;99.90
53520;DHT22;39397;53.204;5.778;2023-03-24T03:24:26;9.90;99.90
53520;DHT22;39397;53.204;5.778;2023-03-24T03:27:05;10.80;99.90
53520;DHT22;39397;53.204;5.778;2023-03-24T03:29:42;10.90;99.90
53520;DHT22;39397;53.204;5.778;2023-03-24T03:32:11;10.80;99.90
53520;DHT22;39397;53.204;5.778;2023-03-24T03:34:45;10.80;99.90
53520;DHT22;39397;53.204;5.778;2023-03-24T03:40:50;11.00;99.90
53520;DHT22;39397;53.204;5.778;2023-03-24T03:43:17;10.50;99.90
53520;DHT22;39397;53.204;5.778;2023-03-24T03:45:43;10.40;99.90
53520;DHT22;39397;53.204;5.778;2023-03-24T03:48:09;10.30;99.90
53520;DHT22;39397;53.204;5.778;2023-03-24T03:50:35;10.30;99.90
53520;DHT22;39397;53.204;5.778;2023-03-24T03:53:03;10.20;99.90
53520;DHT22;39397;53.204;5.778;2023-03-24T03:55:29;10.30;99.90
53520;DHT22;39397;53.204;5.778;2023-03-24T03:57:55;10.30;99.90
53520;DHT22;39397;53.204;5.778;2023-03-24T04:00:21;8.40;99.90
53520;DHT22;39397;53.204;5.778;2023-03-24T04:02:54;10.10;99.90
53520;DHT22;39397;53.204;5.778;2023-03-24T04:11:10;9.70;99.90
53520;DHT22;39397;53.204;5.778;2023-03-24T04:24:47;9.50;99.90
53520;DHT22;39397;53.204;5.778;2023-03-24T04:27:38;9.50;99.90
53520;DHT22;39397;53.204;5.778;2023-03-24T04:30:20;9.50;99.90
53520;DHT22;39397;53.204;5.778;2023-03-24T04:32:54;10.10;99.90
53520;DHT22;39397;53.204;5.778;2023-03-24T04:35:44;9.10;99.90
53520;DHT22;39397;53.204;5.778;2023-03-24T04:38:18;10.10;99.90
53520;DHT22;39397;53.204;5.778;2023-03-24T04:40:50;9.10;99.90
53520;DHT22;39397;53.204;5.778;2023-03-24T04:43:21;9.10;99.90
53520;DHT22;39397;53.204;5.778;2023-03-24T04:45:53;9.40;99.90
53520;DHT22;39397;53.204;5.778;2023-03-24T04:48:23;9.10;99.90
53520;DHT22;39397;53.204;5.778;2023-03-24T04:50:58;9.60;99.90
53520;DHT22;39397;53.204;5.778;2023-03-24T04:53:28;9.10;99.90
53520;DHT22;39397;53.204;5.778;2023-03-24T04:56:47;9.60;99.90
53520;DHT22;39397;53.204;5.778;2023-03-24T04:58:47;9.10;99.90
53520;DHT22;39397;53.204;5.778;2023-03-24T05:01:15;9.30;99.90
53520;DHT22;39397;53.204;5.778;2023-03-24T05:03:41;9.90;99.90
53520;DHT22;39397;53.204;5.778;2023-03-24T05:06:10;9.70;99.90
53520;DHT22;39397;53.204;5.778;2023-03-24T05:08:37;9.00;99.90
53520;DHT22;39397;53.204;5.778;2023-03-24T05:11:04;9.70;99.90
53520;DHT22;39397;53.204;5.778;2023-03-24T05:13:30;9.10;99.90
53520;DHT22;39397;53.204;5.778;2023-03-24T05:15:56;9.00;99.90
53520;DHT22;39397;53.204;5.778;2023-03-24T05:18:23;9.30;99.90
53520;DHT22;39397;53.204;5.778;2023-03-24T05:20:48;9.20;99.90
53520;DHT22;39397;53.204;5.778;2023-03-24T05:23:15;9.20;99.90
53520;DHT22;39397;53.204;5.778;2023-03-24T05:25:41;9.10;99.90
53520;DHT22;39397;53.204;5.778;2023-03-24T05:28:10;8.80;99.90
53520;DHT22;39397;53.204;5.778;2023-03-24T05:30:35;9.40;99.90
53520;DHT22;39397;53.204;5.778;2023-03-24T05:33:01;8.80;99.90
53520;DHT22;39397;53.204;5.778;2023-03-24T05:35:27;9.00;99.90
53520;DHT22;39397;53.204;5.778;2023-03-24T05:37:53;9.60;99.90
53520;DHT22;39397;53.204;5.778;2023-03-24T05:40:19;9.20;99.90
53520;DHT22;39397;53.204;5.778;2023-03-24T05:42:48;8.70;99.90
53520;DHT22;39397;53.204;5.778;2023-03-24T05:45:16;8.70;99.90
53520;DHT22;39397;53.204;5.778;2023-03-24T05:47:42;6.90;99.90
53520;DHT22;39397;53.204;5.778;2023-03-24T05:50:09;9.20;99.90
53520;DHT22;39397;53.204;5.778;2023-03-24T05:52:40;9.00;99.90
53520;DHT22;39397;53.204;5.778;2023-03-24T05:55:06;8.90;99.90
53520;DHT22;39397;53.204;5.778;2023-03-24T05:57:34;8.90;99.90
53520;DHT22;39397;53.204;5.778;2023-03-24T06:00:04;9.50;99.90
53520;DHT22;39397;53.204;5.778;2023-03-24T06:02:35;9.40;99.90
53520;DHT22;39397;53.204;5.778;2023-03-24T06:05:01;9.40;99.90
53520;DHT22;39397;53.204;5.778;2023-03-24T06:07:29;9.30;99.90
53520;DHT22;39397;53.204;5.778;2023-03-24T06:09:57;9.40;99.90
53520;DHT22;39397;53.204;5.778;2023-03-24T06:12:27;9.00;99.90
53520;DHT22;39397;53.204;5.778;2023-03-24T06:14:54;9.30;99.90
53520;DHT22;39397;53.204;5.778;2023-03-24T06:17:21;9.10;99.90
53520;DHT22;39397;53.204;5.778;2023-03-24T06:19:46;9.70;99.90
53520;DHT22;39397;53.204;5.778;2023-03-24T06:22:16;9.60;99.90
53520;DHT22;39397;53.204;5.778;2023-03-24T06:24:45;9.10;99.90
53520;DHT22;39397;53.204;5.778;2023-03-24T06:27:16;9.00;99.90
53520;DHT22;39397;53.204;5.778;2023-03-24T06:29:45;9.10;99.90
53520;DHT22;39397;53.204;5.778;2023-03-24T06:32:16;9.40;99.90
53520;DHT22;39397;53.204;5.778;2023-03-24T06:34:43;9.10;99.90
53520;DHT22;39397;53.204;5.778;2023-03-24T06:37:09;10.10;99.90
53520;DHT22;39397;53.204;5.778;2023-03-24T06:39:34;9.30;99.90
53520;DHT22;39397;53.204;5.778;2023-03-24T06:42:00;9.20;99.90
53520;DHT22;39397;53.204;5.778;2023-03-24T06:44:26;9.70;99.90
53520;DHT22;39397;53.204;5.778;2023-03-24T06:46:52;9.20;99.90
53520;DHT22;39397;53.204;5.778;2023-03-24T06:49:18;9.40;99.90
53520;DHT22;39397;53.204;5.778;2023-03-24T06:51:44;9.40;99.90
53520;DHT22;39397;53.204;5.778;2023-03-24T06:54:13;9.50;99.90
53520;DHT22;39397;53.204;5.778;2023-03-24T06:56:39;9.90;99.90
53520;DHT22;39397;53.204;5.778;2023-03-24T06:59:12;9.10;99.90
53520;DHT22;39397;53.204;5.778;2023-03-24T07:01:37;9.30;99.90
53520;DHT22;39397;53.204;5.778;2023-03-24T07:04:04;9.40;99.90
53520;DHT22;39397;53.204;5.778;2023-03-24T07:06:30;9.50;99.90
53520;DHT22;39397;53.204;5.778;2023-03-24T07:08:56;9.60;99.90
53520;DHT22;39397;53.204;5.778;2023-03-24T07:11:23;9.70;99.90
53520;DHT22;39397;53.204;5.778;2023-03-24T07:13:48;9.70;99.90
53520;DHT22;39397;53.204;5.778;2023-03-24T07:16:14;9.90;99.90
53520;DHT22;39397;53.204;5.778;2023-03-24T07:18:40;9.70;99.90
53520;DHT22;39397;53.204;5.778;2023-03-24T07:21:06;9.80;99.90
53520;DHT22;39397;53.204;5.778;2023-03-24T07:23:32;9.80;99.90
53520;DHT22;39397;53.204;5.778;2023-03-24T07:25:59;9.90;99.90
53520;DHT22;39397;53.204;5.778;2023-03-24T07:28:25;9.90;99.90
53520;DHT22;39397;53.204;5.778;2023-03-24T07:30:51;9.90;99.90
53520;DHT22;39397;53.204;5.778;2023-03-24T07:33:16;10.10;99.90
53520;DHT22;39397;53.204;5.778;2023-03-24T07:35:42;10.00;99.90
53520;DHT22;39397;53.204;5.778;2023-03-24T07:38:08;10.00;99.90
53520;DHT22;39397;53.204;5.778;2023-03-24T07:40:35;10.00;99.90
53520;DHT22;39397;53.204;5.778;2023-03-24T07:43:03;10.40;99.90
53520;DHT22;39397;53.204;5.778;2023-03-24T07:45:30;10.00;99.90
53520;DHT22;39397;53.204;5.778;2023-03-24T07:47:56;10.00;99.90
53520;DHT22;39397;53.204;5.778;2023-03-24T07:50:27;9.90;99.90
53520;DHT22;39397;53.204;5.778;2023-03-24T07:52:53;9.90;99.90
53520;DHT22;39397;53.204;5.778;2023-03-24T07:55:19;10.00;99.90
53520;DHT22;39397;53.204;5.778;2023-03-24T07:57:47;12.20;99.90
53520;DHT22;39397;53.204;5.778;2023-03-24T08:00:13;10.60;99.90
53520;DHT22;39397;53.204;5.778;2023-03-24T08:02:50;10.10;99.90
53520;DHT22;39397;53.204;5.778;2023-03-24T08:05:17;10.10;99.90
53520;DHT22;39397;53.204;5.778;2023-03-24T08:07:49;10.20;99.90
53520;DHT22;39397;53.204;5.778;2023-03-24T08:10:19;10.20;99.90
53520;DHT22;39397;53.204;5.778;2023-03-24T08:12:46;10.20;99.90
53520;DHT22;39397;53.204;5.778;2023-03-24T08:15:12;10.30;99.90
53520;DHT22;39397;53.204;5.778;2023-03-24T08:17:39;10.30;99.90
53520;DHT22;39397;53.204;5.778;2023-03-24T08:20:07;10.30;99.90
53520;DHT22;39397;53.204;5.778;2023-03-24T08:22:36;10.30;99.90
53520;DHT22;39397;53.204;5.778;2023-03-24T08:25:04;10.40;99.90
53520;DHT22;39397;53.204;5.778;2023-03-24T08:27:31;10.40;99.90
53520;DHT22;39397;53.204;5.778;2023-03-24T08:29:57;10.50;99.90
53520;DHT22;39397;53.204;5.778;2023-03-24T08:32:23;10.00;99.90
53520;DHT22;39397;53.204;5.778;2023-03-24T08:34:48;10.50;99.90
53520;DHT22;39397;53.204;5.778;2023-03-24T08:37:14;10.60;99.90
53520;DHT22;39397;53.204;5.778;2023-03-24T08:39:39;10.60;99.90
53520;DHT22;39397;53.204;5.778;2023-03-24T08:42:05;10.60;99.90
53520;DHT22;39397;53.204;5.778;2023-03-24T08:44:31;10.50;99.90
53520;DHT22;39397;53.204;5.778;2023-03-24T08:46:56;10.60;99.90
53520;DHT22;39397;53.204;5.778;2023-03-24T08:49:24;10.70;99.90
53520;DHT22;39397;53.204;5.778;2023-03-24T08:51:50;10.70;99.90
53520;DHT22;39397;53.204;5.778;2023-03-24T08:54:15;10.80;99.90
53520;DHT22;39397;53.204;5.778;2023-03-24T08:56:41;10.80;99.90
53520;DHT22;39397;53.204;5.778;2023-03-24T08:59:07;10.70;99.90
53520;DHT22;39397;53.204;5.778;2023-03-24T09:01:33;10.80;99.90
53520;DHT22;39397;53.204;5.778;2023-03-24T09:04:00;10.80;99.90
53520;DHT22;39397;53.204;5.778;2023-03-24T09:06:25;10.90;99.90
53520;DHT22;39397;53.204;5.778;2023-03-24T09:08:52;11.00;99.90
53520;DHT22;39397;53.204;5.778;2023-03-24T09:11:20;11.10;99.90
53520;DHT22;39397;53.204;5.778;2023-03-24T09:13:46;11.00;99.90
53520;DHT22;39397;53.204;5.778;2023-03-24T09:16:12;10.90;99.90
53520;DHT22;39397;53.204;5.778;2023-03-24T09:18:39;11.00;99.90
53520;DHT22;39397;53.204;5.778;2023-03-24T09:21:06;11.10;99.90
53520;DHT22;39397;53.204;5.778;2023-03-24T09:23:32;11.20;99.90
53520;DHT22;39397;53.204;5.778;2023-03-24T09:25:58;11.10;99.90
53520;DHT22;39397;53.204;5.778;2023-03-24T09:28:24;11.10;99.90
53520;DHT22;39397;53.204;5.778;2023-03-24T09:30:54;11.20;99.90
53520;DHT22;39397;53.204;5.778;2023-03-24T09:33:20;11.30;99.90
53520;DHT22;39397;53.204;5.778;2023-03-24T09:35:55;11.30;99.90
53520;DHT22;39397;53.204;5.778;2023-03-24T09:38:22;11.30;99.90
53520;DHT22;39397;53.204;5.778;2023-03-24T09:40:52;11.30;99.90
53520;DHT22;39397;53.204;5.778;2023-03-24T09:46:13;11.40;99.90
53520;DHT22;39397;53.204;5.778;2023-03-24T09:49:05;11.40;99.90
53520;DHT22;39397;53.204;5.778;2023-03-24T09:51:38;11.40;99.90
53520;DHT22;39397;53.204;5.778;2023-03-24T09:56:53;11.50;99.90
53520;DHT22;39397;53.204;5.778;2023-03-24T09:59:36;11.50;99.90
53520;DHT22;39397;53.204;5.778;2023-03-24T10:02:15;11.70;99.90
53520;DHT22;39397;53.204;5.778;2023-03-24T10:04:44;11.60;99.90
53520;DHT22;39397;53.204;5.778;2023-03-24T10:07:44;10.90;99.90
53520;DHT22;39397;53.204;5.778;2023-03-24T10:10:46;11.70;99.90
53520;DHT22;39397;53.204;5.778;2023-03-24T10:13:31;11.80;99.90
53520;DHT22;39397;53.204;5.778;2023-03-24T10:16:45;11.80;99.90
53520;DHT22;39397;53.204;5.778;2023-03-24T10:19:27;12.00;99.90
53520;DHT22;39397;53.204;5.778;2023-03-24T10:22:13;12.00;99.90
53520;DHT22;39397;53.204;5.778;2023-03-24T10:27:40;12.00;99.90
53520;DHT22;39397;53.204;5.778;2023-03-24T10:30:18;12.00;99.90
53520;DHT22;39397;53.204;5.778;2023-03-24T10:32:45;12.10;99.90
53520;DHT22;39397;53.204;5.778;2023-03-24T10:35:35;12.00;99.90
53520;DHT22;39397;53.204;5.778;2023-03-24T10:38:08;12.10;99.90
53520;DHT22;39397;53.204;5.778;2023-03-24T10:40:36;12.10;99.90
53520;DHT22;39397;53.204;5.778;2023-03-24T10:43:03;12.20;99.90
53520;DHT22;39397;53.204;5.778;2023-03-24T10:45:35;12.30;99.90
53520;DHT22;39397;53.204;5.778;2023-03-24T10:48:02;12.30;99.90
53520;DHT22;39397;53.204;5.778;2023-03-24T10:50:32;12.30;99.90
53520;DHT22;39397;53.204;5.778;2023-03-24T10:53:07;12.30;99.90
53520;DHT22;39397;53.204;5.778;2023-03-24T10:55:38;12.20;99.90
53520;DHT22;39397;53.204;5.778;2023-03-24T10:58:28;12.30;99.90
53520;DHT22;39397;53.204;5.778;2023-03-24T11:00:55;12.20;99.90
53520;DHT22;39397;53.204;5.778;2023-03-24T11:03:27;12.30;99.90
53520;DHT22;39397;53.204;5.778;2023-03-24T11:06:01;12.30;99.90
53520;DHT22;39397;53.204;5.778;2023-03-24T11:08:37;12.30;99.90
53520;DHT22;39397;53.204;5.778;2023-03-24T11:13:56;12.50;99.90
53520;DHT22;39397;53.204;5.778;2023-03-24T11:16:39;12.60;99.90
53520;DHT22;39397;53.204;5.778;2023-03-24T11:19:21;12.80;99.90
53520;DHT22;39397;53.204;5.778;2023-03-24T11:21:50;12.70;99.90
53520;DHT22;39397;53.204;5.778;2023-03-24T11:24:18;12.80;99.90
53520;DHT22;39397;53.204;5.778;2023-03-24T11:26:58;12.90;99.90
53520;DHT22;39397;53.204;5.778;2023-03-24T11:29:28;13.00;99.90
53520;DHT22;39397;53.204;5.778;2023-03-24T11:31:57;13.00;99.90
53520;DHT22;39397;53.204;5.778;2023-03-24T11:34:29;12.80;99.90
53520;DHT22;39397;53.204;5.778;2023-03-24T11:37:01;12.80;99.90
53520;DHT22;39397;53.204;5.778;2023-03-24T11:39:32;12.80;99.90
53520;DHT22;39397;53.204;5.778;2023-03-24T11:49:31;12.80;99.90
53520;DHT22;39397;53.204;5.778;2023-03-24T11:51:59;12.80;99.90
53520;DHT22;39397;53.204;5.778;2023-03-24T11:54:32;12.80;99.90
53520;DHT22;39397;53.204;5.778;2023-03-24T11:57:06;12.80;99.90
53520;DHT22;39397;53.204;5.778;2023-03-24T11:59:39;12.90;99.90
53520;DHT22;39397;53.204;5.778;2023-03-24T12:10:20;12.60;99.90
53520;DHT22;39397;53.204;5.778;2023-03-24T12:13:12;12.80;99.90
53520;DHT22;39397;53.204;5.778;2023-03-24T12:18:57;12.70;99.90
53520;DHT22;39397;53.204;5.778;2023-03-24T12:24:37;12.90;99.90
53520;DHT22;39397;53.204;5.778;2023-03-24T12:27:20;12.90;99.90
53520;DHT22;39397;53.204;5.778;2023-03-24T12:38:31;12.80;99.90
53520;DHT22;39397;53.204;5.778;2023-03-24T12:44:25;12.70;99.90
53520;DHT22;39397;53.204;5.778;2023-03-24T12:46:51;12.80;99.90
53520;DHT22;39397;53.204;5.778;2023-03-24T12:52:10;12.70;99.90
53520;DHT22;39397;53.204;5.778;2023-03-24T12:54:48;12.80;99.90
53520;DHT22;39397;53.204;5.778;2023-03-24T12:57:20;12.70;99.90
53520;DHT22;39397;53.204;5.778;2023-03-24T13:00:04;12.80;99.90
53520;DHT22;39397;53.204;5.778;2023-03-24T13:02:45;12.90;99.90
53520;DHT22;39397;53.204;5.778;2023-03-24T13:05:23;13.10;99.90
53520;DHT22;39397;53.204;5.778;2023-03-24T13:08:11;13.00;99.90
53520;DHT22;39397;53.204;5.778;2023-03-24T13:11:14;13.10;99.90
53520;DHT22;39397;53.204;5.778;2023-03-24T13:13:45;13.50;99.90
53520;DHT22;39397;53.204;5.778;2023-03-24T13:16:22;13.60;99.90
53520;DHT22;39397;53.204;5.778;2023-03-24T13:18:54;13.40;99.90
53520;DHT22;39397;53.204;5.778;2023-03-24T13:21:22;13.20;99.90
53520;DHT22;39397;53.204;5.778;2023-03-24T13:23:55;13.20;99.90
53520;DHT22;39397;53.204;5.778;2023-03-24T13:29:41;13.20;99.90
53520;DHT22;39397;53.204;5.778;2023-03-24T13:32:28;13.20;99.90
53520;DHT22;39397;53.204;5.778;2023-03-24T13:37:41;13.40;99.90
53520;DHT22;39397;53.204;5.778;2023-03-24T13:40:23;13.50;99.90
53520;DHT22;39397;53.204;5.778;2023-03-24T13:42:57;13.50;99.90
53520;DHT22;39397;53.204;5.778;2023-03-24T13:48:20;13.50;99.90
53520;DHT22;39397;53.204;5.778;2023-03-24T13:51:14;13.60;99.90
53520;DHT22;39397;53.204;5.778;2023-03-24T13:53:57;13.70;99.90
53520;DHT22;39397;53.204;5.778;2023-03-24T13:56:31;13.70;99.90
53520;DHT22;39397;53.204;5.778;2023-03-24T14:06:58;13.40;99.90
53520;DHT22;39397;53.204;5.778;2023-03-24T14:09:29;13.40;99.90
53520;DHT22;39397;53.204;5.778;2023-03-24T14:14:25;13.20;99.90
53520;DHT22;39397;53.204;5.778;2023-03-24T14:22:21;13.30;99.90
53520;DHT22;39397;53.204;5.778;2023-03-24T14:27:41;13.10;99.90
53520;DHT22;39397;53.204;5.778;2023-03-24T14:30:19;12.90;99.90
53520;DHT22;39397;53.204;5.778;2023-03-24T14:32:48;13.20;99.90
53520;DHT22;39397;53.204;5.778;2023-03-24T14:38:17;13.30;99.90
53520;DHT22;39397;53.204;5.778;2023-03-24T14:40:47;13.20;99.90
53520;DHT22;39397;53.204;5.778;2023-03-24T14:43:24;13.40;99.90
53520;DHT22;39397;53.204;5.778;2023-03-24T14:51:02;13.70;99.90
53520;DHT22;39397;53.204;5.778;2023-03-24T14:53:34;13.80;99.90
53520;DHT22;39397;53.204;5.778;2023-03-24T14:56:02;13.80;99.90
53520;DHT22;39397;53.204;5.778;2023-03-24T14:58:35;13.60;99.90
53520;DHT22;39397;53.204;5.778;2023-03-24T15:01:04;13.90;99.90
53520;DHT22;39397;53.204;5.778;2023-03-24T15:06:20;14.10;99.90
53520;DHT22;39397;53.204;5.778;2023-03-24T15:08:56;14.20;99.90
53520;DHT22;39397;53.204;5.778;2023-03-24T15:11:33;14.10;99.90
53520;DHT22;39397;53.204;5.778;2023-03-24T15:14:04;14.10;99.90
53520;DHT22;39397;53.204;5.778;2023-03-24T15:16:33;14.20;99.90
53520;DHT22;39397;53.204;5.778;2023-03-24T15:19:07;14.20;99.90
53520;DHT22;39397;53.204;5.778;2023-03-24T15:24:00;14.60;99.90
53520;DHT22;39397;53.204;5.778;2023-03-24T15:26:28;14.60;99.90
53520;DHT22;39397;53.204;5.778;2023-03-24T15:29:05;14.70;99.90
53520;DHT22;39397;53.204;5.778;2023-03-24T15:31:32;14.50;99.90
53520;DHT22;39397;53.204;5.778;2023-03-24T15:36:57;14.20;99.90
53520;DHT22;39397;53.204;5.778;2023-03-24T15:39:28;14.00;99.90
53520;DHT22;39397;53.204;5.778;2023-03-24T15:41:56;13.60;99.90
53520;DHT22;39397;53.204;5.778;2023-03-24T15:44:27;13.80;99.90
53520;DHT22;39397;53.204;5.778;2023-03-24T15:46:57;14.00;99.90
53520;DHT22;39397;53.204;5.778;2023-03-24T15:49:31;14.20;99.90
53520;DHT22;39397;53.204;5.778;2023-03-24T15:52:00;14.20;99.90
53520;DHT22;39397;53.204;5.778;2023-03-24T15:54:35;14.30;99.90
53520;DHT22;39397;53.204;5.778;2023-03-24T15:57:18;14.10;99.90
53520;DHT22;39397;53.204;5.778;2023-03-24T15:59:47;14.20;99.90
53520;DHT22;39397;53.204;5.778;2023-03-24T16:02:24;14.10;99.90
53520;DHT22;39397;53.204;5.778;2023-03-24T16:04:56;14.00;99.90
53520;DHT22;39397;53.204;5.778;2023-03-24T16:07:29;14.00;99.90
53520;DHT22;39397;53.204;5.778;2023-03-24T16:09:58;14.00;99.90
53520;DHT22;39397;53.204;5.778;2023-03-24T16:12:33;14.10;99.90
53520;DHT22;39397;53.204;5.778;2023-03-24T16:15:00;14.00;99.90
53520;DHT22;39397;53.204;5.778;2023-03-24T16:17:26;14.20;99.90
53520;DHT22;39397;53.204;5.778;2023-03-24T16:19:51;14.30;99.90
53520;DHT22;39397;53.204;5.778;2023-03-24T16:22:17;14.10;99.90
53520;DHT22;39397;53.204;5.778;2023-03-24T16:24:43;14.00;99.90
53520;DHT22;39397;53.204;5.778;2023-03-24T16:27:13;13.90;99.90
53520;DHT22;39397;53.204;5.778;2023-03-24T16:29:39;13.80;99.90
53520;DHT22;39397;53.204;5.778;2023-03-24T16:32:05;13.80;99.90
53520;DHT22;39397;53.204;5.778;2023-03-24T16:34:31;13.90;99.90
53520;DHT22;39397;53.204;5.778;2023-03-24T16:36:57;14.10;99.90
53520;DHT22;39397;53.204;5.778;2023-03-24T16:39:27;14.30;99.90
53520;DHT22;39397;53.204;5.778;2023-03-24T16:41:54;14.40;99.90
53520;DHT22;39397;53.204;5.778;2023-03-24T16:44:20;14.30;99.90
53520;DHT22;39397;53.204;5.778;2023-03-24T16:46:47;14.30;99.90
53520;DHT22;39397;53.204;5.778;2023-03-24T16:49:16;14.20;99.90
53520;DHT22;39397;53.204;5.778;2023-03-24T16:51:43;14.10;99.90
53520;DHT22;39397;53.204;5.778;2023-03-24T16:54:09;14.00;99.90
53520;DHT22;39397;53.204;5.778;2023-03-24T16:56:36;13.80;99.90
53520;DHT22;39397;53.204;5.778;2023-03-24T16:59:02;13.50;99.90
53520;DHT22;39397;53.204;5.778;2023-03-24T17:04:07;13.40;99.90
53520;DHT22;39397;53.204;5.778;2023-03-24T17:06:41;13.30;99.90
53520;DHT22;39397;53.204;5.778;2023-03-24T17:09:08;10.80;99.90
53520;DHT22;39397;53.204;5.778;2023-03-24T17:11:42;13.20;99.90
53520;DHT22;39397;53.204;5.778;2023-03-24T17:14:10;13.20;99.90
53520;DHT22;39397;53.204;5.778;2023-03-24T17:16:41;13.00;99.90
53520;DHT22;39397;53.204;5.778;2023-03-24T17:19:15;12.80;99.90
53520;DHT22;39397;53.204;5.778;2023-03-24T17:21:44;12.50;99.90
53520;DHT22;39397;53.204;5.778;2023-03-24T17:24:12;12.20;99.90
53520;DHT22;39397;53.204;5.778;2023-03-24T17:26:40;11.80;99.90
53520;DHT22;39397;53.204;5.778;2023-03-24T17:29:07;11.70;99.90
53520;DHT22;39397;53.204;5.778;2023-03-24T17:31:33;11.50;99.90
53520;DHT22;39397;53.204;5.778;2023-03-24T17:33:59;11.30;99.90
53520;DHT22;39397;53.204;5.778;2023-03-24T17:36:25;11.20;99.90
53520;DHT22;39397;53.204;5.778;2023-03-24T17:38:51;11.10;99.90
53520;DHT22;39397;53.204;5.778;2023-03-24T17:41:16;11.00;99.90
53520;DHT22;39397;53.204;5.778;2023-03-24T17:43:44;10.80;99.90
53520;DHT22;39397;53.204;5.778;2023-03-24T17:46:11;10.60;99.90
53520;DHT22;39397;53.204;5.778;2023-03-24T17:48:37;10.50;99.90
53520;DHT22;39397;53.204;5.778;2023-03-24T17:51:03;10.60;99.90
53520;DHT22;39397;53.204;5.778;2023-03-24T17:53:28;10.50;99.90
53520;DHT22;39397;53.204;5.778;2023-03-24T17:55:59;10.40;99.90
53520;DHT22;39397;53.204;5.778;2023-03-24T17:58:34;10.20;99.90
53520;DHT22;39397;53.204;5.778;2023-03-24T18:01:01;10.20;99.90
53520;DHT22;39397;53.204;5.778;2023-03-24T18:03:31;10.20;99.90
53520;DHT22;39397;53.204;5.778;2023-03-24T18:06:04;10.10;99.90
53520;DHT22;39397;53.204;5.778;2023-03-24T18:08:30;10.60;99.90
53520;DHT22;39397;53.204;5.778;2023-03-24T18:11:11;9.90;99.90
53520;DHT22;39397;53.204;5.778;2023-03-24T18:13:37;9.90;99.90
53520;DHT22;39397;53.204;5.778;2023-03-24T18:16:04;10.00;99.90
53520;DHT22;39397;53.204;5.778;2023-03-24T18:18:32;9.80;99.90
53520;DHT22;39397;53.204;5.778;2023-03-24T18:20:57;9.90;99.90
53520;DHT22;39397;53.204;5.778;2023-03-24T18:23:23;9.70;99.90
53520;DHT22;39397;53.204;5.778;2023-03-24T18:25:56;9.70;99.90
53520;DHT22;39397;53.204;5.778;2023-03-24T18:28:22;9.80;99.90